Time;durP1;ratioP1;P1;durP2;ratioP2;P2;SDS_P1;SDS_P2;PMS_P1;PMS_P2;Temp;Humidity;BMP_temperature;BMP_pressure;BME280_temperature;BME280_humidity;BME280_pressure;Samples;Min_cycle;Max_cycle;Signal;HPM_P1;HPM_P2
2021/07/15 00:00:39;;;;;;;1.85;1.33;;;;;;;16.79;99.47;99837.97;5053134;28;20573;-84
2021/07/15 00:03:09;;;;;;;3.45;1.20;;;;;;;16.85;98.63;99840.13;5060579;28;20056;-84
2021/07/15 00:05:39;;;;;;;4.60;1.60;;;;;;;16.88;98.58;99844.38;5067277;28;20085;-84
2021/07/15 00:08:10;;;;;;;1.85;1.10;;;;;;;16.95;98.54;99859.81;5067558;28;20052;-82
2021/07/15 00:10:41;;;;;;;1.38;1.10;;;;;;;16.94;97.93;99857.28;5072304;28;20060;-84
2021/07/15 00:13:08;;;;;;;2.00;1.00;;;;;;;16.95;97.79;99859.81;5073605;28;20071;-83
2021/07/15 00:15:38;;;;;;;4.15;1.38;;;;;;;16.95;97.49;99846.44;5079439;28;20041;-83
2021/07/15 00:18:11;;;;;;;1.20;1.20;;;;;;;16.89;97.02;99846.09;5076497;28;20125;-83
2021/07/15 00:20:44;;;;;;;3.30;1.20;;;;;;;16.91;97.42;99847.66;5075538;28;20064;-84
2021/07/15 00:23:11;;;;;;;1.35;1.25;;;;;;;16.91;97.29;99847.66;5068078;28;20073;-83
2021/07/15 00:25:43;;;;;;;3.80;1.42;;;;;;;16.92;96.98;99849.38;5051687;28;20045;-83
2021/07/15 00:28:21;;;;;;;2.10;1.20;;;;;;;16.92;96.82;99843.16;5059710;28;20598;-83
2021/07/15 00:30:47;;;;;;;2.95;1.30;;;;;;;16.92;96.56;99841.34;5058576;28;20072;-83
2021/07/15 00:33:14;;;;;;;3.97;1.30;;;;;;;16.86;96.59;99833.81;5055921;28;20040;-83
2021/07/15 00:35:41;;;;;;;1.50;1.40;;;;;;;16.91;96.74;99839.66;5040942;28;20071;-85
2021/07/15 00:38:08;;;;;;;2.38;1.30;;;;;;;16.91;96.25;99842.31;5054975;28;20135;-83
2021/07/15 00:40:37;;;;;;;1.30;1.20;;;;;;;16.96;96.28;99855.31;5056110;28;20057;-84
2021/07/15 00:43:04;;;;;;;1.52;1.00;;;;;;;16.96;96.11;99860.69;5052609;28;20137;-83
2021/07/15 00:45:31;;;;;;;1.73;1.40;;;;;;;16.96;95.95;99863.34;5065984;28;20084;-83
2021/07/15 00:47:58;;;;;;;1.83;1.05;;;;;;;16.99;95.90;99861.28;5052265;28;20049;-84
2021/07/15 00:50:25;;;;;;;1.20;1.10;;;;;;;17.02;95.78;99865.50;5056553;28;20052;-84
2021/07/15 00:52:53;;;;;;;2.65;1.20;;;;;;;17.04;95.91;99861.72;5059338;28;20055;-84
2021/07/15 00:55:28;;;;;;;1.60;0.90;;;;;;;17.03;96.23;99861.84;5056184;28;20391;-83
2021/07/15 00:57:55;;;;;;;2.72;1.33;;;;;;;17.03;95.90;99862.69;5062804;28;20049;-82
2021/07/15 01:00:25;;;;;;;1.58;1.10;;;;;;;17.03;96.21;99859.19;5044578;28;20106;-83
2021/07/15 01:02:54;;;;;;;1.17;1.10;;;;;;;17.01;96.21;99859.31;5055941;28;20047;-84
2021/07/15 01:05:34;;;;;;;3.03;1.13;;;;;;;17.00;96.00;99867.47;5057692;28;20112;-84
2021/07/15 01:08:02;;;;;;;1.15;1.05;;;;;;;17.01;96.46;99874.50;5060095;28;20061;-84
2021/07/15 01:10:33;;;;;;;1.77;1.35;;;;;;;17.01;96.40;99879.84;5057059;28;20045;-84
2021/07/15 01:13:25;;;;;;;1.63;1.33;;;;;;;17.00;96.18;99878.19;5057533;28;20114;-84
2021/07/15 01:15:56;;;;;;;1.10;1.00;;;;;;;16.90;95.82;99862.00;5040972;28;20053;-83
2021/07/15 01:18:33;;;;;;;2.17;1.30;;;;;;;16.95;96.11;99880.38;5063424;28;20052;-84
2021/07/15 01:21:19;;;;;;;3.95;1.08;;;;;;;16.94;96.63;99892.03;5050127;28;20056;-84
2021/07/15 01:24:13;;;;;;;1.40;1.10;;;;;;;16.98;96.51;99894.34;5061224;28;20053;-84
2021/07/15 01:26:53;;;;;;;1.00;1.00;;;;;;;16.98;96.27;99898.84;5064352;28;20037;-85
2021/07/15 01:29:55;;;;;;;1.73;1.00;;;;;;;16.99;95.99;99901.41;5072289;28;20104;-83
2021/07/15 01:32:29;;;;;;;1.80;1.10;;;;;;;17.00;95.82;99896.91;5006946;28;20138;-83
2021/07/15 01:35:01;;;;;;;2.67;1.15;;;;;;;16.99;95.89;99893.38;5047918;28;20431;-85
2021/07/15 01:37:31;;;;;;;2.17;1.00;;;;;;;16.98;95.74;99891.69;5062574;28;20043;-84
2021/07/15 01:40:00;;;;;;;2.03;1.20;;;;;;;16.98;95.63;99891.69;5068180;28;20064;-82
2021/07/15 01:42:30;;;;;;;3.10;1.40;;;;;;;16.98;95.89;99893.50;5061548;28;20128;-83
2021/07/15 01:44:57;;;;;;;1.02;1.00;;;;;;;16.97;96.13;99898.00;5060195;28;20068;-82
2021/07/15 01:47:26;;;;;;;0.70;0.70;;;;;;;16.97;95.93;99899.81;5070060;28;20124;-85
2021/07/15 01:49:58;;;;;;;1.85;1.08;;;;;;;16.93;95.83;99896.53;5059298;28;20059;-85
2021/07/15 01:52:27;;;;;;;2.35;1.05;;;;;;;16.98;96.03;99909.53;5055270;28;20080;-84
2021/07/15 01:54:54;;;;;;;0.93;0.93;;;;;;;16.98;96.14;99914.91;5057166;28;20075;-83
2021/07/15 01:57:24;;;;;;;1.52;1.00;;;;;;;16.94;95.88;99910.75;5060650;28;20045;-85
2021/07/15 01:59:53;;;;;;;3.05;1.10;;;;;;;16.95;95.88;99912.47;5042512;28;20055;-83
2021/07/15 02:02:21;;;;;;;2.97;0.95;;;;;;;16.94;95.89;99911.63;5056326;28;20399;-81
2021/07/15 02:04:53;;;;;;;1.42;1.20;;;;;;;16.95;95.91;99913.31;5054919;28;20080;-82
2021/07/15 02:07:21;;;;;;;1.13;0.90;;;;;;;16.95;96.02;99913.31;5068158;28;20033;-84
2021/07/15 02:09:50;;;;;;;1.63;0.82;;;;;;;16.95;95.89;99921.34;5070355;28;20105;-83
2021/07/15 02:12:19;;;;;;;1.90;1.10;;;;;;;16.93;95.94;99906.38;5073898;28;20036;-84
2021/07/15 02:14:48;;;;;;;2.10;0.90;;;;;;;16.95;95.82;99913.31;5073948;28;20033;-82
2021/07/15 02:17:15;;;;;;;1.65;1.10;;;;;;;16.95;95.38;99913.31;5074476;28;20109;-83
2021/07/15 02:19:46;;;;;;;1.95;0.70;;;;;;;16.94;95.91;99911.63;5073190;28;20144;-83
2021/07/15 02:22:17;;;;;;;1.02;1.00;;;;;;;16.94;96.12;99910.75;5074734;28;20044;-85
2021/07/15 02:24:46;;;;;;;0.80;0.80;;;;;;;16.98;96.16;99918.44;5070048;28;20132;-84
2021/07/15 02:27:14;;;;;;;1.23;1.10;;;;;;;16.99;96.22;99919.28;5069549;28;20041;-84
2021/07/15 02:29:42;;;;;;;1.60;1.00;;;;;;;16.97;96.37;99922.06;5068627;28;20079;-83
2021/07/15 02:32:13;;;;;;;4.20;1.30;;;;;;;16.99;96.67;99935.31;5066615;28;20112;-83
2021/07/15 02:35:04;;;;;;;1.60;1.15;;;;;;;16.97;96.95;99932.78;5072201;28;20048;-83
2021/07/15 02:37:36;;;;;;;2.08;1.17;;;;;;;16.92;97.94;99924.25;5072425;28;20068;-83
2021/07/15 02:40:09;;;;;;;1.50;1.13;;;;;;;16.84;98.53;99922.19;5063024;28;20041;-82
2021/07/15 02:42:36;;;;;;;1.63;1.00;;;;;;;16.78;99.33;99922.69;5055218;28;20507;-83
2021/07/15 02:45:08;;;;;;;1.30;1.20;;;;;;;16.76;100.00;99929.13;5052861;28;20096;-82
2021/07/15 02:47:35;;;;;;;2.28;1.30;;;;;;;16.73;100.00;99916.00;5048996;28;20587;-83
2021/07/15 02:50:06;;;;;;;1.58;1.30;;;;;;;16.69;100.00;99920.75;5049618;28;20045;-84
2021/07/15 02:52:33;;;;;;;1.73;1.33;;;;;;;16.67;100.00;99916.50;5068839;28;20116;-84
2021/07/15 02:55:02;;;;;;;3.45;1.50;;;;;;;16.63;100.00;99913.22;5058141;28;20064;-83
2021/07/15 02:57:45;;;;;;;2.53;1.67;;;;;;;16.59;100.00;99902.84;5058581;28;20454;-84
2021/07/15 03:00:16;;;;;;;1.80;1.70;;;;;;;16.61;100.00;99898.25;5061544;28;20120;-83
2021/07/15 03:02:58;;;;;;;3.13;1.90;;;;;;;16.59;100.00;99913.56;5036426;28;20091;-83
2021/07/15 03:05:34;;;;;;;1.88;1.67;;;;;;;16.57;100.00;99913.66;5063526;28;20099;-84
2021/07/15 03:08:07;;;;;;;2.65;1.70;;;;;;;16.57;100.00;99918.16;5071247;28;20045;-83
2021/07/15 03:10:35;;;;;;;2.17;1.60;;;;;;;16.55;100.00;99910.25;5072040;28;20113;-83
2021/07/15 03:13:07;;;;;;;3.53;1.73;;;;;;;16.55;100.00;99920.94;5074396;28;20123;-82
2021/07/15 03:15:35;;;;;;;3.83;1.70;;;;;;;16.54;100.00;99926.41;5082977;28;20057;-83
2021/07/15 03:18:05;;;;;;;1.80;1.70;;;;;;;16.56;100.00;99935.16;5076332;28;20104;-81
2021/07/15 03:20:35;;;;;;;1.50;1.40;;;;;;;16.57;100.00;99927.03;5076607;28;20144;-82
2021/07/15 03:23:16;;;;;;;1.73;1.63;;;;;;;16.60;100.00;99928.63;5075694;28;20060;-81
2021/07/15 03:25:47;;;;;;;;;;;;;;;16.63;100.00;99925.75;5071571;28;20140;-83
2021/07/15 03:28:17;;;;;;;2.15;1.95;;;;;;;16.65;100.00;99923.81;5062406;28;20019;-82
2021/07/15 03:30:46;;;;;;;3.33;2.20;;;;;;;16.63;100.00;99925.75;5056859;28;20057;-82
2021/07/15 03:33:16;;;;;;;3.05;2.33;;;;;;;16.61;100.00;99919.63;5058335;28;20051;-82
2021/07/15 03:35:46;;;;;;;3.00;1.98;;;;;;;16.62;100.00;99924.00;5058301;28;20488;-82
2021/07/15 03:38:13;;;;;;;3.40;1.83;;;;;;;16.67;100.00;99935.22;5054131;28;20136;-82
2021/07/15 03:40:41;;;;;;;4.32;1.98;;;;;;;16.66;100.00;99929.03;5056112;28;20053;-82
2021/07/15 03:43:12;;;;;;;1.95;1.83;;;;;;;16.66;100.00;99922.84;5051368;28;20137;-83
2021/07/15 03:45:43;;;;;;;2.72;1.83;;;;;;;16.66;100.00;99920.16;5053969;28;20083;-83
2021/07/15 03:48:10;;;;;;;2.58;1.73;;;;;;;16.65;100.00;99913.97;5058505;28;20055;-82
2021/07/15 03:50:38;;;;;;;1.75;1.65;;;;;;;16.65;100.00;99919.31;5049835;28;20057;-83
2021/07/15 03:53:05;;;;;;;2.30;1.80;;;;;;;16.63;100.00;99923.91;5049506;28;20642;-81
2021/07/15 03:55:37;;;;;;;3.47;1.98;;;;;;;16.63;100.00;99931.94;5052843;28;20041;-82
2021/07/15 03:58:08;;;;;;;2.10;2.00;;;;;;;16.66;100.00;99929.03;5052601;28;20057;-83
2021/07/15 04:00:37;;;;;;;;;;;;;;;16.69;100.00;99922.56;5054400;28;20549;-82
2021/07/15 04:03:06;;;;;;;2.17;1.90;;;;;;;16.70;100.00;99930.47;5051415;28;19921;-83
2021/07/15 04:05:38;;;;;;;2.33;1.75;;;;;;;16.73;100.00;99937.41;5050293;28;20059;-83
2021/07/15 04:08:06;;;;;;;2.20;2.00;;;;;;;16.74;100.00;99936.41;5056491;28;20109;-83
2021/07/15 04:10:33;;;;;;;2.45;1.55;;;;;;;16.77;100.00;99946.88;5063252;28;20044;-83
2021/07/15 04:13:02;;;;;;;3.10;1.90;;;;;;;16.78;100.00;99938.75;5066405;28;20052;-83
2021/07/15 04:16:06;;;;;;;3.10;1.67;;;;;;;16.79;100.00;99951.13;5065156;28;20053;-84
2021/07/15 04:18:37;;;;;;;2.63;1.35;;;;;;;16.79;100.00;99942.25;5063506;28;20041;-83
2021/07/15 04:21:05;;;;;;;1.60;1.50;;;;;;;16.82;100.00;99953.56;5050138;28;20045;-83
2021/07/15 04:23:34;;;;;;;1.75;1.60;;;;;;;16.83;100.00;99962.44;5044110;28;20136;-82
2021/07/15 04:26:02;;;;;;;2.15;1.60;;;;;;;16.83;100.00;99954.44;5059037;28;20091;-83
2021/07/15 04:28:29;;;;;;;3.05;1.70;;;;;;;16.86;100.00;99961.31;5057001;28;20719;-82
2021/07/15 04:31:30;;;;;;;2.90;1.60;;;;;;;16.88;100.00;99968.25;5057767;28;20085;-82
2021/07/15 04:34:00;;;;;;;2.88;1.52;;;;;;;16.90;100.00;99969.00;5058781;28;20049;-83
2021/07/15 04:36:31;;;;;;;1.75;1.40;;;;;;;16.92;100.00;99967.06;5067549;28;20041;-82
2021/07/15 04:38:59;;;;;;;1.23;1.23;;;;;;;16.98;100.00;99961.22;5067437;28;20083;-83
2021/07/15 04:41:27;;;;;;;1.70;1.60;;;;;;;17.00;100.00;99963.78;5051025;28;20077;-84
2021/07/15 04:43:57;;;;;;;2.25;1.65;;;;;;;17.02;100.00;99957.31;5037834;28;20041;-83
2021/07/15 04:46:24;;;;;;;2.25;1.55;;;;;;;16.99;100.00;99948.69;5041812;28;20116;-83
2021/07/15 04:48:55;;;;;;;1.67;1.40;;;;;;;17.01;100.00;99957.41;5056665;28;20045;-84
2021/07/15 04:51:26;;;;;;;4.80;2.75;;;;;;;17.02;100.00;99957.31;5052027;28;20053;-83
2021/07/15 04:53:55;;;;;;;2.30;1.23;;;;;;;17.02;100.00;99962.66;5054359;28;20052;-83
2021/07/15 04:56:22;;;;;;;0.85;0.85;;;;;;;17.01;99.98;99960.09;5057439;28;20052;-82
2021/07/15 04:58:52;;;;;;;1.15;1.00;;;;;;;17.02;99.59;99976.03;5059498;28;20108;-82
2021/07/15 05:01:19;;;;;;;1.73;0.88;;;;;;;17.02;99.41;99976.03;5058086;28;20436;-84
2021/07/15 05:03:46;;;;;;;2.00;0.95;;;;;;;17.06;99.01;99987.34;5058637;28;20044;-82
2021/07/15 05:06:14;;;;;;;1.58;1.00;;;;;;;17.08;98.73;99982.72;5065059;28;20056;-82
2021/07/15 05:08:40;;;;;;;2.65;1.27;;;;;;;17.11;98.86;99974.44;5057882;28;20069;-83
2021/07/15 05:11:07;;;;;;;0.80;0.80;;;;;;;17.18;98.48;99992.53;5042946;28;20157;-80
2021/07/15 05:13:36;;;;;;;2.00;1.13;;;;;;;17.24;98.05;99993.03;5050049;28;20063;-83
2021/07/15 05:16:03;;;;;;;1.48;1.08;;;;;;;17.26;97.86;99989.25;5053595;28;20140;-84
2021/07/15 05:18:30;;;;;;;3.50;1.10;;;;;;;17.31;97.09;99988.91;5046067;28;20049;-83
2021/07/15 05:20:58;;;;;;;2.83;1.00;;;;;;;17.39;96.98;99989.13;5040494;28;20411;-84
2021/07/15 05:23:25;;;;;;;1.50;0.98;;;;;;;17.43;94.99;99988.75;5050030;28;20064;-82
2021/07/15 05:25:53;;;;;;;1.00;0.80;;;;;;;17.47;94.66;99990.19;5050820;28;20033;-82
2021/07/15 05:28:21;;;;;;;2.13;0.80;;;;;;;17.48;94.90;99983.00;5048184;28;20084;-82
2021/07/15 05:30:51;;;;;;;2.40;0.70;;;;;;;17.51;95.09;99985.44;5049312;28;20049;-83
2021/07/15 05:33:18;;;;;;;0.95;0.70;;;;;;;17.55;95.04;99986.88;5042586;28;20052;-82
2021/07/15 05:35:45;;;;;;;2.50;1.10;;;;;;;17.58;93.92;99997.34;5036473;28;20049;-84
2021/07/15 05:38:12;;;;;;;1.23;1.05;;;;;;;17.55;92.56;99981.53;5035644;28;20050;-85
2021/07/15 05:40:39;;;;;;;1.27;0.90;;;;;;;17.57;92.15;99979.56;5037806;28;20144;-84
2021/07/15 05:43:10;;;;;;;1.75;0.90;;;;;;;17.55;92.95;99973.50;5039913;28;20052;-81
2021/07/15 05:45:37;;;;;;;1.30;0.70;;;;;;;17.73;93.17;99980.03;5035645;28;20562;-82
2021/07/15 05:48:05;;;;;;;1.20;1.00;;;;;;;17.87;92.77;99982.41;5035912;28;20045;-84
2021/07/15 05:50:31;;;;;;;2.13;0.80;;;;;;;17.99;90.40;99983.22;5035508;28;20053;-83
2021/07/15 05:52:59;;;;;;;1.67;0.80;;;;;;;18.13;90.70;99974.84;5040148;28;20049;-83
2021/07/15 05:55:26;;;;;;;1.67;0.70;;;;;;;18.26;89.15;99977.31;5039099;28;20110;-83
2021/07/15 05:57:54;;;;;;;0.77;0.70;;;;;;;18.29;87.75;99977.06;5036422;28;20108;-83
2021/07/15 06:00:20;;;;;;;2.33;1.00;;;;;;;18.37;86.87;99981.78;5036424;28;20045;-83
2021/07/15 06:02:48;;;;;;;0.70;0.70;;;;;;;18.50;87.42;99991.31;5052119;28;20053;-83
2021/07/15 06:05:25;;;;;;;2.95;0.70;;;;;;;18.62;86.21;99991.28;5031913;28;20622;-83
2021/07/15 06:07:53;;;;;;;1.05;0.70;;;;;;;18.71;85.76;99994.03;5036789;28;20041;-83
2021/07/15 06:10:20;;;;;;;0.73;0.65;;;;;;;18.79;84.54;99994.19;5061240;28;20072;-82
2021/07/15 06:12:47;;;;;;;4.45;1.38;;;;;;;18.71;83.10;99983.28;5058589;28;20112;-83
2021/07/15 06:15:14;;;;;;;0.60;0.60;;;;;;;18.64;83.35;99994.69;5054256;28;20069;-83
2021/07/15 06:17:41;;;;;;;1.90;0.63;;;;;;;18.60;84.23;99990.56;5053407;28;20045;-82
2021/07/15 06:20:12;;;;;;;2.42;0.40;;;;;;;18.53;83.70;99991.06;5059032;28;20059;-83
2021/07/15 06:22:41;;;;;;;1.95;0.80;;;;;;;18.51;83.72;99989.50;5058206;28;20175;-82
2021/07/15 06:25:12;;;;;;;2.30;0.60;;;;;;;18.49;84.09;100000.34;5057254;28;20045;-83
2021/07/15 06:27:41;;;;;;;3.28;0.80;;;;;;;18.57;84.39;99997.03;5041579;28;20095;-83
2021/07/15 06:30:10;;;;;;;1.55;0.98;;;;;;;19.17;83.63;99996.19;5055935;28;20047;-83
2021/07/15 06:32:36;;;;;;;1.70;0.70;;;;;;;20.05;82.23;99997.19;5056366;28;20048;-85
2021/07/15 06:35:04;;;;;;;1.15;0.95;;;;;;;20.89;76.74;99992.81;5059730;28;20059;-84
2021/07/15 06:37:37;;;;;;;0.85;0.57;;;;;;;21.33;72.11;99992.06;5054364;28;20132;-84
2021/07/15 06:40:06;;;;;;;1.30;0.63;;;;;;;21.28;70.88;99994.34;5053808;28;20128;-85
2021/07/15 06:42:33;;;;;;;1.02;0.70;;;;;;;21.29;70.42;100003.25;5053357;28;20048;-84
2021/07/15 06:45:00;;;;;;;0.40;0.40;;;;;;;21.17;71.34;100002.59;5055696;28;20072;-84
2021/07/15 06:47:27;;;;;;;0.30;0.30;;;;;;;21.09;71.28;99999.81;5056166;28;20105;-84
2021/07/15 06:49:53;;;;;;;0.40;0.40;;;;;;;21.02;71.85;99996.84;5058610;28;20049;-84
2021/07/15 06:52:23;;;;;;;0.52;0.40;;;;;;;21.41;72.24;99990.47;5058262;28;20053;-84
2021/07/15 06:54:51;;;;;;;1.42;0.40;;;;;;;21.77;68.69;99997.56;5058759;28;20499;-84
2021/07/15 06:57:18;;;;;;;1.58;0.50;;;;;;;21.94;65.63;99995.88;5059967;28;20072;-84
2021/07/15 06:59:45;;;;;;;1.10;0.80;;;;;;;22.04;66.31;99981.34;5059111;28;20104;-84
2021/07/15 07:02:13;;;;;;;3.70;0.30;;;;;;;22.50;66.81;99994.69;5061388;28;20107;-84
2021/07/15 07:04:41;;;;;;;0.75;0.40;;;;;;;22.79;63.85;100002.50;5067278;28;20060;-85
2021/07/15 07:07:07;;;;;;;0.30;0.30;;;;;;;22.66;63.40;100001.06;5067091;28;20036;-86
2021/07/15 07:09:34;;;;;;;2.95;0.40;;;;;;;22.75;62.69;100001.94;5073073;28;20215;-85
2021/07/15 07:12:01;;;;;;;0.20;0.20;;;;;;;22.49;62.47;100006.50;5081741;28;20044;-84
2021/07/15 07:14:28;;;;;;;1.02;0.30;;;;;;;22.09;64.65;100012.38;5066515;28;20136;-84
2021/07/15 07:16:55;;;;;;;0.30;0.20;;;;;;;21.75;65.65;100015.72;5075645;28;20100;-85
2021/07/15 07:19:21;;;;;;;1.65;0.40;;;;;;;21.34;66.56;100017.13;5073927;28;20049;-85
2021/07/15 07:21:48;;;;;;;3.08;0.70;;;;;;;21.00;67.98;100022.22;5075787;28;20096;-85
2021/07/15 07:24:15;;;;;;;0.85;0.60;;;;;;;20.75;70.80;100022.88;5069176;28;20090;-83
2021/07/15 07:26:44;;;;;;;0.30;0.30;;;;;;;20.67;70.98;100027.13;5062098;28;20052;-82
2021/07/15 07:29:10;;;;;;;0.65;0.43;;;;;;;20.58;71.63;100028.00;5062853;28;20089;-85
2021/07/15 07:31:37;;;;;;;2.47;0.40;;;;;;;20.48;71.50;100020.94;5071463;28;20053;-82
2021/07/15 07:34:04;;;;;;;0.70;0.40;;;;;;;20.30;72.16;100013.56;5058391;28;20127;-83
2021/07/15 07:36:30;;;;;;;1.38;0.50;;;;;;;20.15;72.45;100023.06;5054526;28;20064;-84
2021/07/15 07:38:58;;;;;;;1.25;0.68;;;;;;;20.07;72.79;100035.53;5056858;28;20076;-82
2021/07/15 07:41:25;;;;;;;1.13;0.68;;;;;;;19.93;73.43;100043.03;5055414;28;20041;-81
2021/07/15 07:43:53;;;;;;;1.63;0.70;;;;;;;19.84;74.05;100037.63;5053944;28;20137;-83
2021/07/15 07:46:20;;;;;;;0.50;0.50;;;;;;;19.79;75.29;100038.06;5054532;28;20045;-83
2021/07/15 07:48:46;;;;;;;2.25;0.57;;;;;;;19.75;75.22;100038.47;5053578;28;20041;-83
2021/07/15 07:51:14;;;;;;;0.57;0.40;;;;;;;19.66;75.42;100039.31;5050360;28;20496;-84
2021/07/15 07:53:41;;;;;;;1.92;0.50;;;;;;;19.51;74.44;100044.22;5055493;28;20068;-84
2021/07/15 07:56:08;;;;;;;0.57;0.30;;;;;;;19.44;74.35;100046.56;5039832;28;20047;-84
2021/07/15 07:58:35;;;;;;;1.63;0.63;;;;;;;19.39;74.88;100047.94;5039646;28;20071;-84
2021/07/15 08:01:03;;;;;;;3.03;0.77;;;;;;;19.37;75.47;100044.53;5061613;28;20044;-83
2021/07/15 08:03:32;;;;;;;0.90;0.57;;;;;;;19.42;76.29;100043.16;5064031;28;20044;-83
2021/07/15 08:06:05;;;;;;;1.42;0.50;;;;;;;19.47;75.75;100045.44;5035220;28;20048;-83
2021/07/15 08:08:35;;;;;;;3.08;0.52;;;;;;;19.60;76.48;100046.94;5058467;28;20056;-84
2021/07/15 08:11:04;;;;;;;0.90;0.40;;;;;;;19.76;76.15;100045.53;5052026;28;20047;-81
2021/07/15 08:13:31;;;;;;;0.80;0.60;;;;;;;19.82;75.38;100055.75;5072287;28;20071;-83
2021/07/15 08:15:58;;;;;;;1.92;0.70;;;;;;;19.82;74.70;100061.97;5069333;28;20025;-82
2021/07/15 08:18:25;;;;;;;0.93;0.63;;;;;;;19.77;75.07;100064.22;5069018;28;20060;-83
2021/07/15 08:20:52;;;;;;;1.48;0.40;;;;;;;19.76;74.84;100059.81;5064708;28;20151;-83
2021/07/15 08:23:18;;;;;;;0.60;0.52;;;;;;;19.69;73.97;100055.13;5049851;28;20075;-84
2021/07/15 08:25:45;;;;;;;0.70;0.40;;;;;;;19.66;73.86;100058.97;5068385;28;20132;-85
2021/07/15 08:28:12;;;;;;;0.63;0.50;;;;;;;19.50;74.12;100051.44;5058609;28;20041;-85
2021/07/15 08:30:39;;;;;;;4.43;0.60;;;;;;;19.50;74.85;100070.22;5073087;28;20052;-84
2021/07/15 08:33:06;;;;;;;2.80;0.90;;;;;;;19.55;74.23;100075.16;5068978;28;20053;-82
2021/07/15 08:36:31;;;;;;;1.25;0.50;;;;;;;19.55;73.66;100076.03;5070074;28;20055;-88
2021/07/15 08:38:58;;;;;;;1.27;0.85;;;;;;;19.61;73.58;100069.25;5039264;28;20049;-80
2021/07/15 08:41:25;;;;;;;2.80;0.55;;;;;;;19.74;73.28;100069.00;5058910;28;20041;-83
2021/07/15 08:43:54;;;;;;;3.03;0.60;;;;;;;19.77;73.25;100064.22;5059332;28;20037;-84
2021/07/15 08:46:23;;;;;;;1.20;0.63;;;;;;;19.87;73.63;100065.06;5058723;28;20165;-85
2021/07/15 08:48:51;;;;;;;0.43;0.40;;;;;;;19.92;73.13;100072.72;5075395;28;20053;-84
2021/07/15 08:51:19;;;;;;;1.07;0.70;;;;;;;20.03;72.24;100067.22;5074284;28;20048;-83
2021/07/15 08:53:48;;;;;;;3.00;0.60;;;;;;;20.25;70.87;100060.72;5068086;28;20471;-83
2021/07/15 08:59:01;;;;;;;0.80;0.50;;;;;;;20.68;71.92;100060.25;5061888;28;20069;-83
2021/07/15 09:01:31;;;;;;;0.40;0.40;;;;;;;20.98;69.92;100067.28;5062936;28;20569;-84
2021/07/15 09:04:00;;;;;;;0.35;0.35;;;;;;;21.33;69.55;100069.31;5066504;28;20131;-83
2021/07/15 09:06:51;;;;;;;1.75;0.55;;;;;;;21.41;68.14;100082.03;5064511;28;20059;-85
2021/07/15 09:09:18;;;;;;;1.60;0.73;;;;;;;21.39;68.21;100078.66;5067826;28;20144;-84
2021/07/15 09:11:46;;;;;;;2.15;0.70;;;;;;;21.22;67.33;100091.03;5071308;28;20041;-83
2021/07/15 09:14:18;;;;;;;1.90;0.75;;;;;;;21.09;67.77;100085.97;5073456;28;20040;-84
2021/07/15 09:17:06;;;;;;;1.52;0.70;;;;;;;21.11;68.11;100083.94;5077874;28;20047;-84
2021/07/15 09:19:38;;;;;;;1.73;0.60;;;;;;;21.26;68.50;100082.50;5074605;28;20044;-84
2021/07/15 09:22:14;;;;;;;1.83;0.80;;;;;;;21.43;68.31;100072.78;5072070;28;20053;-82
2021/07/15 09:24:45;;;;;;;2.67;0.80;;;;;;;21.44;66.89;100073.63;5069412;28;20103;-84
2021/07/15 09:27:16;;;;;;;2.25;0.60;;;;;;;21.50;67.01;100073.06;5048681;28;20063;-83
2021/07/15 09:29:45;;;;;;;1.88;0.90;;;;;;;21.65;67.68;100077.78;5053763;28;20077;-84
2021/07/15 09:32:16;;;;;;;1.08;0.50;;;;;;;21.80;66.24;100080.81;5059584;28;20053;-84
2021/07/15 09:34:43;;;;;;;2.05;0.80;;;;;;;21.76;66.00;100076.72;5053616;28;20082;-84
2021/07/15 09:37:15;;;;;;;2.67;0.60;;;;;;;21.69;66.92;100079.19;5054649;28;20048;-84
2021/07/15 09:39:49;;;;;;;2.55;0.70;;;;;;;21.72;67.11;100083.44;5055068;28;20179;-84
2021/07/15 09:42:20;;;;;;;1.10;0.70;;;;;;;21.79;66.55;100084.50;5062574;28;20138;-85
2021/07/15 09:44:47;;;;;;;;;;;;;;;21.88;65.92;100091.69;5060019;28;20132;-85
2021/07/15 09:47:36;;;;;;;1.23;0.90;;;;;;;22.06;66.47;100091.75;5060969;28;19920;-84
2021/07/15 09:50:25;;;;;;;1.38;0.60;;;;;;;22.21;64.98;100090.19;5061740;28;20048;-83
2021/07/15 09:53:13;;;;;;;1.67;0.67;;;;;;;22.35;64.42;100091.53;5056861;28;20494;-83
2021/07/15 09:55:41;;;;;;;1.30;0.60;;;;;;;22.51;61.94;100091.66;5064480;28;20095;-83
2021/07/15 09:58:10;;;;;;;0.63;0.63;;;;;;;22.45;62.55;100089.59;5080719;28;20053;-80
2021/07/15 10:00:39;;;;;;;1.83;0.90;;;;;;;22.44;63.96;100087.03;5063639;28;20116;-83
2021/07/15 10:03:08;;;;;;;2.63;0.70;;;;;;;22.40;62.39;100083.81;5064770;28;20040;-84
2021/07/15 10:05:38;;;;;;;2.03;0.80;;;;;;;22.39;62.41;100085.66;5043051;28;20075;-83
2021/07/15 10:08:10;;;;;;;0.82;0.47;;;;;;;22.37;62.28;100084.13;5061037;28;20164;-82
2021/07/15 10:10:38;;;;;;;0.90;0.63;;;;;;;22.35;62.26;100080.75;5057222;28;20065;-85
2021/07/15 10:13:17;;;;;;;2.25;0.52;;;;;;;22.40;63.60;100079.25;5057016;28;20388;-82
2021/07/15 10:15:45;;;;;;;1.75;0.75;;;;;;;22.46;63.08;100076.94;5050987;28;20461;-83
2021/07/15 10:18:12;;;;;;;2.22;0.80;;;;;;;22.50;63.82;100084.59;5056124;28;20045;-83
2021/07/15 10:20:59;;;;;;;3.03;0.80;;;;;;;22.52;63.43;100087.94;5055274;28;20045;-81
2021/07/15 10:23:49;;;;;;;1.58;0.70;;;;;;;22.54;62.59;100091.34;5055568;28;20144;-82
2021/07/15 10:26:27;;;;;;;1.70;0.57;;;;;;;22.57;62.04;100079.41;5054566;28;20092;-82
2021/07/15 10:28:54;;;;;;;0.40;0.40;;;;;;;22.61;62.43;100087.03;5051814;28;20136;-86
2021/07/15 10:31:23;;;;;;;2.53;0.80;;;;;;;22.57;61.75;100085.66;5061010;28;20403;-82
2021/07/15 10:33:52;;;;;;;0.55;0.40;;;;;;;22.55;61.43;100093.03;5050000;28;20048;-82
2021/07/15 10:36:19;;;;;;;0.60;0.60;;;;;;;22.56;62.03;100099.28;5054850;28;20068;-84
2021/07/15 10:38:48;;;;;;;1.33;0.60;;;;;;;22.60;61.99;100095.28;5036329;28;20053;-85
2021/07/15 10:41:21;;;;;;;1.55;0.70;;;;;;;22.61;61.46;100095.13;5053002;28;20657;-83
2021/07/15 10:43:51;;;;;;;1.40;0.70;;;;;;;22.70;60.82;100098.72;5046859;28;20553;-83
2021/07/15 10:46:18;;;;;;;5.97;1.30;;;;;;;22.84;61.26;100100.88;5052125;28;20363;-84
2021/07/15 10:48:47;;;;;;;3.25;1.20;;;;;;;22.87;60.57;100103.28;5041760;28;20172;-85
2021/07/15 10:51:15;;;;;;;1.20;0.85;;;;;;;22.91;60.04;100104.66;5056812;28;20040;-84
2021/07/15 10:53:43;;;;;;;1.90;1.20;;;;;;;22.88;60.03;100101.44;5052582;28;20077;-83
2021/07/15 10:56:15;;;;;;;1.50;1.00;;;;;;;22.91;58.56;100115.47;5052089;28;20051;-85
2021/07/15 10:58:49;;;;;;;0.68;0.50;;;;;;;22.91;59.19;100111.91;5048646;28;20143;-83
2021/07/15 11:01:31;;;;;;;2.22;0.65;;;;;;;22.90;59.65;100107.53;5050882;28;20045;-84
2021/07/15 11:04:13;;;;;;;0.40;0.40;;;;;;;22.92;60.23;100108.22;5034824;28;20302;-84
2021/07/15 11:06:44;;;;;;;1.05;0.60;;;;;;;23.00;59.30;100109.09;5058081;28;20045;-84
2021/07/15 11:09:24;;;;;;;;;;;;;;;23.07;57.91;100114.72;5050185;28;20095;-83
2021/07/15 11:11:52;;;;;;;1.40;0.85;;;;;;;23.12;58.45;100115.13;5035948;28;19929;-82
2021/07/15 11:14:35;;;;;;;0.90;0.50;;;;;;;23.15;58.03;100120.16;5034815;28;20083;-84
2021/07/15 11:17:29;;;;;;;0.55;0.55;;;;;;;23.14;56.38;100123.88;5051421;28;20657;-84
2021/07/15 11:20:31;;;;;;;0.70;0.50;;;;;;;23.15;56.06;100132.81;5049923;28;20041;-84
2021/07/15 11:23:18;;;;;;;0.65;0.60;;;;;;;23.30;56.79;100123.13;4998168;28;20048;-85
2021/07/15 11:25:44;;;;;;;0.50;0.50;;;;;;;23.45;55.43;100124.25;5049420;28;20136;-83
2021/07/15 11:28:18;;;;;;;0.47;0.47;;;;;;;23.58;54.57;100119.28;5049266;28;20075;-84
2021/07/15 11:30:46;;;;;;;0.93;0.52;;;;;;;23.57;55.36;100122.97;5048832;28;20492;-83
2021/07/15 11:33:16;;;;;;;0.55;0.50;;;;;;;23.52;56.87;100127.16;5053285;28;20055;-84
2021/07/15 11:35:52;;;;;;;1.77;0.60;;;;;;;23.28;56.94;100117.91;5057237;28;20562;-84
2021/07/15 11:38:24;;;;;;;1.20;0.55;;;;;;;23.30;56.92;100132.09;5052311;28;20053;-84
2021/07/15 11:40:56;;;;;;;1.27;0.68;;;;;;;23.32;55.80;100131.94;5065730;28;20072;-84
2021/07/15 11:43:30;;;;;;;0.57;0.43;;;;;;;23.35;55.40;100120.81;5057767;28;20119;-84
2021/07/15 11:46:21;;;;;;;0.98;0.60;;;;;;;23.35;56.43;100134.31;5061309;28;20052;-84
2021/07/15 11:48:57;;;;;;;0.57;0.50;;;;;;;23.67;53.84;100137.22;5043094;28;20066;-83